createdAt,value
2022-09-02T00:01:46.902Z,101133.63
2022-09-02T00:04:23.597Z,101137.88
2022-09-02T00:06:54.258Z,101137.88
2022-09-02T00:09:25.641Z,101138.72
2022-09-02T00:11:56.653Z,101131.19
2022-09-02T00:14:35.978Z,101130.03
2022-09-02T00:17:05.308Z,101123.47
2022-09-02T00:19:34.230Z,101118.22
2022-09-02T00:22:03.135Z,101116.94
2022-09-02T00:24:32.186Z,101120.22
2022-09-02T00:27:00.675Z,101118.72
2022-09-02T00:29:29.335Z,101116.59
2022-09-02T00:31:58.290Z,101107.59
2022-09-02T00:34:26.690Z,101118.72
2022-09-02T00:36:55.153Z,101114.13
2022-09-02T00:39:23.403Z,101105.63
2022-09-02T00:41:51.198Z,101107.94
2022-09-02T00:44:20.361Z,101110.06
2022-09-02T00:46:48.979Z,101113.50
2022-09-02T00:49:27.031Z,101111.22
2022-09-02T00:52:15.084Z,101103.81
2022-09-02T00:54:54.755Z,101103.16
2022-09-02T00:57:31.065Z,101104.13
2022-09-02T01:00:10.920Z,101112.00
2022-09-02T01:02:41.981Z,101105.09
2022-09-02T01:05:15.332Z,101109.19
2022-09-02T01:07:44.893Z,101105.72
2022-09-02T01:10:28.164Z,101104.44
2022-09-02T01:13:11.299Z,101102.13
2022-09-02T01:16:17.650Z,101087.56
2022-09-02T01:18:52.382Z,101095.22
2022-09-02T01:21:23.069Z,101092.28
2022-09-02T01:23:52.623Z,101083.75
2022-09-02T01:26:21.243Z,101092.91
2022-09-02T01:28:49.557Z,101092.91
2022-09-02T01:31:19.421Z,101087.97
2022-09-02T01:33:47.673Z,101099.25
2022-09-02T01:36:16.212Z,101090.75
2022-09-02T01:38:44.557Z,101093.16
2022-09-02T01:41:13.534Z,101087.44
2022-09-02T01:43:41.898Z,101084.81
2022-09-02T01:46:10.276Z,101089.88
2022-09-02T01:48:38.983Z,101092.44
2022-09-02T01:51:07.712Z,101083.94
2022-09-02T01:53:36.691Z,101080.66
2022-09-02T01:56:07.064Z,101074.13
2022-09-02T01:58:36.121Z,101086.69
2022-09-02T02:01:04.668Z,101078.47
2022-09-02T02:03:35.800Z,101078.91
2022-09-02T02:06:14.724Z,101067.13
2022-09-02T02:08:44.380Z,101071.34
2022-09-02T02:11:19.943Z,101067.28
2022-09-02T02:13:51.302Z,101071.81
2022-09-02T02:16:22.889Z,101067.72
2022-09-02T02:18:51.271Z,101065.56
2022-09-02T02:21:20.032Z,101066.22
2022-09-02T02:23:49.170Z,101062.94
2022-09-02T02:26:17.404Z,101066.34
2022-09-02T02:28:45.806Z,101059.16
2022-09-02T02:31:14.051Z,101053.41
2022-09-02T02:33:42.394Z,101065.34
2022-09-02T02:36:11.327Z,101057.97
2022-09-02T02:38:41.301Z,101056.13
2022-09-02T02:41:10.216Z,101058.41
2022-09-02T02:43:39.505Z,101063.47
2022-09-02T02:46:08.700Z,101047.44
2022-09-02T02:48:39.058Z,101048.75
2022-09-02T02:51:08.559Z,101061.94
2022-09-02T02:53:37.048Z,101053.44
2022-09-02T02:56:06.358Z,101057.16
2022-09-02T02:58:34.812Z,101048.63
2022-09-02T03:01:04.080Z,101050.09
2022-09-02T03:03:33.084Z,101045.19
2022-09-02T03:06:01.775Z,101049.69
2022-09-02T03:08:32.006Z,101043.66
2022-09-02T03:11:01.734Z,101048.19
2022-09-02T03:13:33.506Z,101045.56
2022-09-02T03:16:06.327Z,101048.94
2022-09-02T03:18:35.940Z,101047.28
2022-09-02T03:21:08.872Z,101039.94
2022-09-02T03:23:37.549Z,101054.13
2022-09-02T03:26:12.735Z,101050.00
2022-09-02T03:28:41.262Z,101037.91
2022-09-02T03:31:20.972Z,101044.88
2022-09-02T03:33:50.397Z,101044.06
2022-09-02T03:36:32.693Z,101044.06
2022-09-02T03:39:02.810Z,101045.50
2022-09-02T03:41:31.234Z,101039.97
2022-09-02T03:44:01.936Z,101036.97
2022-09-02T03:46:31.661Z,101042.50
2022-09-02T03:49:00.257Z,101045.91
2022-09-02T03:51:28.831Z,101031.22
2022-09-02T03:53:57.326Z,101033.50
2022-09-02T03:56:27.392Z,101033.00
2022-09-02T03:58:57.467Z,101030.22
2022-09-02T04:01:29.727Z,101031.34
2022-09-02T04:04:07.718Z,101029.19
2022-09-02T04:06:38.777Z,101027.56
2022-09-02T04:09:07.463Z,101029.50
2022-09-02T04:11:37.691Z,101023.94
2022-09-02T04:14:06.318Z,101031.97
2022-09-02T04:16:35.165Z,101022.03
2022-09-02T04:19:09.413Z,101024.91
2022-09-02T04:21:40.356Z,101020.47
2022-09-02T04:24:11.135Z,101021.59
2022-09-02T04:26:44.810Z,101021.09
2022-09-02T04:29:16.612Z,101030.56
2022-09-02T04:31:45.647Z,101020.09
2022-09-02T04:34:14.048Z,101019.25
2022-09-02T04:36:43.457Z,101015.47
2022-09-02T04:39:13.629Z,101017.44
2022-09-02T04:41:42.511Z,101018.88
2022-09-02T04:44:12.711Z,101012.72
2022-09-02T04:46:44.029Z,101016.41
2022-09-02T04:49:16.232Z,101014.78
2022-09-02T04:51:46.006Z,101013.13
2022-09-02T04:54:14.381Z,101012.31
2022-09-02T04:56:44.973Z,101006.97
2022-09-02T04:59:14.176Z,101014.25
2022-09-02T05:01:50.318Z,101012.63
2022-09-02T05:04:22.946Z,101017.03
2022-09-02T05:06:53.717Z,101017.03
2022-09-02T05:09:22.927Z,101018.66
2022-09-02T05:11:58.419Z,101022.56
2022-09-02T05:14:32.873Z,101021.44
2022-09-02T05:17:07.654Z,101015.41
2022-09-02T05:19:39.126Z,101015.09
2022-09-02T05:22:07.805Z,101018.66
2022-09-02T05:24:40.144Z,101021.94
2022-09-02T05:27:15.373Z,101021.13
2022-09-02T05:29:45.513Z,101018.06
2022-09-02T05:32:15.235Z,101016.91
2022-09-02T05:34:45.426Z,101015.78
2022-09-02T05:37:13.285Z,101020.22
2022-09-02T05:39:41.748Z,101017.94
2022-09-02T05:42:11.032Z,101016.81
2022-09-02T05:44:44.465Z,101013.41
2022-09-02T05:47:14.847Z,101013.41
2022-09-02T05:49:43.741Z,101018.03
2022-09-02T05:52:14.903Z,101017.72
2022-09-02T05:54:49.682Z,101010.69
2022-09-02T05:57:21.817Z,101016.78
2022-09-02T06:00:07.947Z,101009.78
2022-09-02T06:02:43.765Z,101012.25
2022-09-02T06:05:21.818Z,101009.34
2022-09-02T06:07:57.746Z,101017.84
2022-09-02T06:10:26.637Z,101009.72
2022-09-02T06:12:55.347Z,101009.63
2022-09-02T06:15:30.742Z,101011.47
2022-09-02T06:18:00.337Z,101011.97
2022-09-02T06:20:32.458Z,101001.41
2022-09-02T06:23:02.324Z,101007.81
2022-09-02T06:25:30.721Z,101006.38
2022-09-02T06:28:02.101Z,101007.38
2022-09-02T06:30:38.456Z,101004.16
2022-09-02T06:33:07.428Z,100996.19
2022-09-02T06:35:44.614Z,101003.28
2022-09-02T06:38:14.821Z,101002.81
2022-09-02T06:40:54.707Z,101005.16
2022-09-02T06:43:42.354Z,101000.78
2022-09-02T06:46:28.261Z,100999.69
2022-09-02T06:48:58.843Z,101000.03
2022-09-02T06:51:43.777Z,101002.03
2022-09-02T06:54:17.177Z,100991.47
2022-09-02T06:56:49.627Z,100990.16
2022-09-02T06:59:21.346Z,100988.91
2022-09-02T07:01:53.570Z,100995.31
2022-09-02T07:04:42.749Z,100989.78
2022-09-02T07:07:15.214Z,100990.63
2022-09-02T07:09:55.519Z,100985.38
2022-09-02T07:12:26.961Z,100995.88
2022-09-02T07:15:00.616Z,100993.28
2022-09-02T07:17:34.661Z,100996.25
2022-09-02T07:20:06.978Z,100993.44
2022-09-02T07:22:43.337Z,100997.53
2022-09-02T07:25:17.411Z,100993.09
2022-09-02T07:27:45.895Z,100996.41
2022-09-02T07:30:14.709Z,100989.00
2022-09-02T07:32:45.565Z,100985.53
2022-09-02T07:35:13.804Z,100980.44
2022-09-02T07:37:42.063Z,100984.16
2022-09-02T07:40:12.069Z,100982.97
2022-09-02T07:42:40.682Z,100978.69
2022-09-02T07:45:11.485Z,100984.03
2022-09-02T07:47:42.002Z,100976.41
2022-09-02T07:50:21.536Z,100977.22
2022-09-02T07:52:59.066Z,100983.56
2022-09-02T07:55:31.626Z,100974.47
2022-09-02T07:58:01.417Z,100979.97
2022-09-02T08:00:31.057Z,100975.63
2022-09-02T08:05:47.027Z,100968.41
2022-09-02T08:08:20.108Z,100969.44
2022-09-02T08:10:51.118Z,100965.59
2022-09-02T08:13:19.662Z,100967.97
2022-09-02T08:15:50.798Z,100961.97
2022-09-02T08:18:21.100Z,100967.50
2022-09-02T08:20:51.065Z,100972.63
2022-09-02T08:23:35.485Z,100966.25
2022-09-02T08:26:05.574Z,100959.53
2022-09-02T08:28:34.513Z,100957.88
2022-09-02T08:31:07.342Z,100961.50
2022-09-02T08:33:36.368Z,100959.50
2022-09-02T08:36:11.743Z,100955.81
2022-09-02T08:38:40.097Z,100952.53
2022-09-02T08:41:33.951Z,100948.44
2022-09-02T08:44:03.133Z,100948.06
2022-09-02T08:46:33.120Z,100945.16
2022-09-02T08:49:16.820Z,100949.53
2022-09-02T08:52:01.091Z,100941.91
2022-09-02T08:55:14.522Z,100930.41
2022-09-02T08:57:44.614Z,100942.38
2022-09-02T09:00:14.203Z,100937.91
2022-09-02T09:03:26.115Z,100940.72
2022-09-02T09:06:07.359Z,100939.72
2022-09-02T09:08:57.962Z,100931.13
2022-09-02T09:12:19.216Z,100934.84
2022-09-02T09:15:29.403Z,100916.34
2022-09-02T09:18:03.122Z,100925.88
2022-09-02T09:20:41.289Z,100922.50
2022-09-02T09:23:34.555Z,100928.75
2022-09-02T09:26:17.670Z,100923.00
2022-09-02T09:28:49.088Z,100923.63
2022-09-02T09:31:24.990Z,100922.19
2022-09-02T09:34:12.810Z,100915.75
2022-09-02T09:36:54.283Z,100909.06
2022-09-02T09:39:29.648Z,100909.59
2022-09-02T09:42:01.598Z,100900.59
2022-09-02T09:44:47.001Z,100895.03
2022-09-02T09:47:26.581Z,100893.69
2022-09-02T09:50:16.770Z,100888.19
2022-09-02T09:52:47.804Z,100885.25
2022-09-02T09:55:24.798Z,100878.16
2022-09-02T09:57:54.405Z,100875.53
2022-09-02T10:00:33.562Z,100875.34
2022-09-02T10:03:05.889Z,100865.81
2022-09-02T10:05:40.191Z,100870.47
2022-09-02T10:08:16.849Z,100873.59
2022-09-02T10:10:59.585Z,100871.34
2022-09-02T10:13:33.091Z,100872.78
2022-09-02T10:16:29.971Z,100862.34
2022-09-02T10:19:34.256Z,100848.44
2022-09-02T10:22:59.561Z,100856.03
2022-09-02T10:26:11.680Z,100847.09
2022-09-02T10:29:20.585Z,100842.25
2022-09-02T10:32:18.716Z,100832.25
2022-09-02T10:35:29.752Z,100835.91
2022-09-02T10:38:30.898Z,100828.00
2022-09-02T10:41:18.326Z,100823.31
2022-09-02T10:44:24.410Z,100827.59
2022-09-02T10:47:25.025Z,100823.56
2022-09-02T10:50:40.861Z,100813.34
2022-09-02T10:53:59.733Z,100816.91
2022-09-02T10:56:43.815Z,100804.13
2022-09-02T10:59:30.377Z,100793.88
2022-09-02T11:02:22.488Z,100798.41
2022-09-02T11:05:03.850Z,100792.25
2022-09-02T11:07:52.701Z,100789.19
2022-09-02T11:10:27.832Z,100785.16
2022-09-02T11:13:23.105Z,100777.72
2022-09-02T11:16:06.195Z,100777.72
2022-09-02T11:19:05.419Z,100774.22
2022-09-02T11:21:56.084Z,100774.22
2022-09-02T11:24:43.315Z,100760.31
2022-09-02T11:28:00.785Z,100760.38
2022-09-02T11:30:48.547Z,100756.13
2022-09-02T11:33:47.149Z,100756.13
2022-09-02T11:36:16.935Z,100759.72
2022-09-02T11:39:05.029Z,100761.81
2022-09-02T11:41:41.713Z,100755.75
2022-09-02T11:45:11.375Z,100740.16
2022-09-02T11:48:23.889Z,100733.16
2022-09-02T11:51:10.768Z,100740.34
2022-09-02T11:53:42.951Z,100745.59
2022-09-02T11:56:17.073Z,100739.88
2022-09-02T11:58:52.964Z,100727.59
2022-09-02T12:01:43.686Z,100741.31
2022-09-02T12:07:08.750Z,100721.19
2022-09-02T12:09:55.148Z,100731.03
2022-09-02T12:12:42.421Z,68092.72
2022-09-02T12:15:17.946Z,68092.72
2022-09-02T12:17:48.225Z,68092.72
2022-09-02T12:20:57.205Z,68092.72
2022-09-02T12:23:53.348Z,68092.72
2022-09-02T12:26:23.063Z,68092.72
2022-09-02T12:28:52.359Z,68092.72
2022-09-02T12:31:42.953Z,68092.72
2022-09-02T12:34:25.984Z,68092.72
2022-09-02T12:37:02.503Z,68092.72
2022-09-02T12:39:35.463Z,68092.72
2022-09-02T12:42:11.857Z,68092.72
2022-09-02T12:45:28.156Z,68092.72
2022-09-02T12:48:18.253Z,68092.72
2022-09-02T12:51:00.057Z,68092.72
2022-09-02T12:53:43.815Z,68092.72
2022-09-02T12:56:23.872Z,68092.72
2022-09-02T12:59:02.215Z,68092.72
2022-09-02T13:02:14.734Z,100731.03
2022-09-02T13:05:42.982Z,100675.28
2022-09-02T13:09:06.456Z,100676.50
2022-09-02T13:12:11.838Z,100673.19
2022-09-02T13:15:57.259Z,100669.97
2022-09-02T13:19:03.257Z,100670.50
2022-09-02T13:21:56.197Z,100673.03
2022-09-02T13:24:57.960Z,100664.41
2022-09-02T13:28:07.910Z,100656.50
2022-09-02T13:31:26.766Z,100658.22
2022-09-02T13:34:13.731Z,100656.09
2022-09-02T13:36:47.004Z,100659.03
2022-09-02T13:39:27.979Z,100652.31
2022-09-02T13:41:57.260Z,100643.13
2022-09-02T13:44:29.429Z,100636.56
2022-09-02T13:47:16.264Z,100637.91
2022-09-02T13:49:53.811Z,100645.31
2022-09-02T13:53:17.717Z,100638.84
2022-09-02T13:55:15.953Z,100636.16
2022-09-02T13:58:00.457Z,100637.44
2022-09-02T14:00:39.938Z,100637.56
2022-09-02T14:03:21.124Z,100641.38
2022-09-02T14:05:53.147Z,100633.31
2022-09-02T14:08:24.671Z,100637.03
2022-09-02T14:10:53.912Z,100637.25
2022-09-02T14:13:23.168Z,100631.91
2022-09-02T14:15:51.609Z,100628.84
2022-09-02T14:18:22.763Z,100628.94
2022-09-02T14:21:18.413Z,100622.47
2022-09-02T14:23:55.540Z,100622.69
2022-09-02T14:26:38.227Z,100624.19
2022-09-02T14:29:07.951Z,100622.47
2022-09-02T14:32:15.805Z,100626.09
2022-09-02T14:34:47.397Z,100623.13
2022-09-02T14:37:26.869Z,100618.50
2022-09-02T14:40:12.190Z,100618.25
2022-09-02T14:42:56.596Z,100614.06
2022-09-02T14:45:33.181Z,100610.78
2022-09-02T14:48:13.594Z,100614.41
2022-09-02T14:50:43.146Z,100617.81
2022-09-02T14:53:12.129Z,100615.31
2022-09-02T14:55:52.322Z,100623.28
2022-09-02T14:58:27.432Z,100627.38
2022-09-02T15:00:59.963Z,100616.66
2022-09-02T15:03:53.797Z,100616.44
2022-09-02T15:06:22.126Z,100625.56
2022-09-02T15:08:50.400Z,100618.81
2022-09-02T15:11:21.100Z,100620.06
2022-09-02T15:13:50.937Z,100613.09
2022-09-02T15:16:20.120Z,100613.94
2022-09-02T15:18:48.341Z,100613.53
2022-09-02T15:21:17.324Z,100613.13
2022-09-02T15:23:50.555Z,100613.91
2022-09-02T15:26:28.204Z,100607.25
2022-09-02T15:28:56.571Z,100604.50
2022-09-02T15:31:25.565Z,100611.50
2022-09-02T15:33:59.990Z,100605.97
2022-09-02T15:36:52.976Z,100603.41
2022-09-02T15:39:22.778Z,100604.16
2022-09-02T15:41:51.943Z,100603.78
2022-09-02T15:44:20.217Z,100598.28
2022-09-02T15:46:48.230Z,100590.19
2022-09-02T15:49:24.724Z,100585.81
2022-09-02T15:51:55.157Z,100579.44
2022-09-02T15:54:24.443Z,100578.34
2022-09-02T15:56:56.998Z,100572.16
2022-09-02T15:59:26.420Z,100569.06
2022-09-02T16:01:57.185Z,100569.84
2022-09-02T16:04:27.231Z,100576.94
2022-09-02T16:06:55.108Z,100572.50
2022-09-02T16:09:23.535Z,100569.94
2022-09-02T16:11:56.166Z,100563.81
2022-09-02T16:14:25.762Z,100564.47
2022-09-02T16:16:57.727Z,100557.38
2022-09-02T16:19:30.231Z,100556.38
2022-09-02T16:21:59.223Z,100557.78
2022-09-02T16:24:27.758Z,100552.16
2022-09-02T16:26:55.971Z,100538.44
2022-09-02T16:29:26.885Z,100545.75
2022-09-02T16:32:14.291Z,100544.84
2022-09-02T16:34:46.618Z,100534.03
2022-09-02T16:37:18.855Z,100541.13
2022-09-02T16:39:47.199Z,100548.25
2022-09-02T16:42:15.439Z,100541.22
2022-09-02T16:44:44.803Z,100534.19
2022-09-02T16:47:13.791Z,100530.19
2022-09-02T16:49:42.526Z,100528.78
2022-09-02T16:52:10.776Z,100532.16
2022-09-02T16:54:41.163Z,100527.13
2022-09-02T16:57:09.861Z,100539.91
2022-09-02T16:59:38.064Z,100528.44
2022-09-02T17:02:06.793Z,100528.56
2022-09-02T17:04:35.070Z,100530.63
2022-09-02T17:07:03.275Z,100534.78
2022-09-02T17:09:31.526Z,100529.75
2022-09-02T17:11:59.800Z,100537.47
2022-09-02T17:14:28.042Z,100535.25
2022-09-02T17:16:56.344Z,100535.75
2022-09-02T17:19:28.618Z,100539.91
2022-09-02T17:22:00.461Z,100537.72
2022-09-02T17:24:30.599Z,100537.94
2022-09-02T17:27:01.089Z,100547.56
2022-09-02T17:29:48.685Z,100542.75
2022-09-02T17:32:19.334Z,100547.88
2022-09-02T17:34:50.369Z,100544.38
2022-09-02T17:37:19.797Z,100550.09
2022-09-02T17:39:49.534Z,100549.25
2022-09-02T17:42:18.348Z,100547.69
2022-09-02T17:44:46.605Z,100556.09
2022-09-02T17:47:23.143Z,100553.16
2022-09-02T17:49:51.981Z,100550.53
2022-09-02T17:52:25.047Z,100552.84
2022-09-02T17:54:54.330Z,100548.63
2022-09-02T17:57:48.101Z,100554.09
2022-09-02T18:00:26.503Z,100556.41
2022-09-02T18:03:20.277Z,100553.88
2022-09-02T18:06:01.796Z,100556.28
2022-09-02T18:09:01.045Z,100556.63
2022-09-02T18:11:30.717Z,100561.06
2022-09-02T18:14:48.452Z,100559.63
2022-09-02T18:17:34.943Z,100542.91
2022-09-02T18:20:43.962Z,100563.31
2022-09-02T18:23:42.028Z,100560.03
2022-09-02T18:26:30.240Z,100565.72
2022-09-02T18:29:43.223Z,100572.31
2022-09-02T18:33:13.370Z,100570.00
2022-09-02T18:36:25.898Z,100572.41
2022-09-02T18:39:19.846Z,100577.28
2022-09-02T18:42:27.590Z,100570.44
2022-09-02T18:45:35.498Z,100567.22
2022-09-02T18:48:10.759Z,100578.06
2022-09-02T18:51:12.846Z,100576.84
2022-09-02T18:53:49.389Z,100577.59
2022-09-02T18:56:21.030Z,100583.16
2022-09-02T18:59:11.573Z,100584.31
2022-09-02T19:01:55.559Z,100583.84
2022-09-02T19:04:29.374Z,100595.22
2022-09-02T19:07:18.344Z,100585.28
2022-09-02T19:09:47.019Z,100592.03
2022-09-02T19:12:15.385Z,100585.50
2022-09-02T19:14:43.298Z,100599.91
2022-09-02T19:17:12.527Z,100598.81
2022-09-02T19:19:40.436Z,100598.03
2022-09-02T19:22:11.342Z,100595.44
2022-09-02T19:24:58.010Z,100605.03
2022-09-02T19:27:35.610Z,100607.13
2022-09-02T19:30:20.221Z,100606.25
2022-09-02T19:32:58.912Z,100607.69
2022-09-02T19:35:30.112Z,100614.41
2022-09-02T19:37:58.171Z,100603.41
2022-09-02T19:40:33.062Z,100610.59
2022-09-02T19:43:05.170Z,100605.13
2022-09-02T19:45:37.248Z,100606.47
2022-09-02T19:48:11.045Z,100605.34
2022-09-02T19:50:43.250Z,100609.03
2022-09-02T19:53:22.152Z,100617.72
2022-09-02T19:55:51.047Z,100608.47
2022-09-02T19:58:19.115Z,100614.50
2022-09-02T20:00:47.904Z,100618.16
2022-09-02T20:03:16.568Z,100612.53
2022-09-02T20:05:44.373Z,100615.66
2022-09-02T20:08:12.442Z,100620.22
2022-09-02T20:10:40.472Z,100618.34
2022-09-02T20:13:13.596Z,100616.97
2022-09-02T20:15:41.566Z,100615.34
2022-09-02T20:18:14.283Z,100626.94
2022-09-02T20:20:46.292Z,100613.31
2022-09-02T20:23:18.068Z,100624.91
2022-09-02T20:26:50.327Z,100618.69
2022-09-02T20:29:49.880Z,100618.78
2022-09-02T20:32:52.641Z,100623.88
2022-09-02T20:36:00.203Z,100619.63
2022-09-02T20:39:03.904Z,100623.03
2022-09-02T20:42:06.232Z,100628.91
2022-09-02T20:44:40.816Z,100627.72
2022-09-02T20:47:26.526Z,100625.06
2022-09-02T20:50:44.078Z,100618.34
2022-09-02T20:54:00.268Z,100620.78
2022-09-02T20:57:00.459Z,100616.63
2022-09-02T21:00:02.130Z,100613.53
2022-09-02T21:02:57.773Z,100617.91
2022-09-02T21:05:42.477Z,100614.28
2022-09-02T21:08:24.288Z,100611.41
2022-09-02T21:10:59.203Z,100615.03
2022-09-02T21:14:00.752Z,100620.59
2022-09-02T21:16:39.891Z,100617.31
2022-09-02T21:19:34.333Z,100618.53
2022-09-02T21:22:28.935Z,100624.50
2022-09-02T21:25:27.606Z,100616.81
2022-09-02T21:28:11.938Z,100615.19
2022-09-02T21:31:05.870Z,100626.28
2022-09-02T21:33:42.688Z,100627.19
2022-09-02T21:36:14.541Z,100621.09
2022-09-02T21:38:45.618Z,100618.16
2022-09-02T21:41:32.951Z,100628.50
2022-09-02T21:44:57.483Z,100624.56
2022-09-02T21:48:28.965Z,100621.72
2022-09-02T21:51:01.656Z,100635.13
2022-09-02T21:54:11.216Z,100626.22
2022-09-02T21:57:19.104Z,100635.13
2022-09-02T22:00:00.642Z,100627.75
2022-09-02T22:03:00.743Z,100630.91
2022-09-02T22:05:53.141Z,100631.13
2022-09-02T22:08:44.020Z,100630.69
2022-09-02T22:11:23.316Z,100623.31
2022-09-02T22:13:51.477Z,100626.50
2022-09-02T22:16:55.947Z,100628.50
2022-09-02T22:19:29.954Z,100617.56
2022-09-02T22:22:16.602Z,100621.53
2022-09-02T22:24:47.603Z,100627.06
2022-09-02T22:27:39.593Z,100628.88
2022-09-02T22:30:15.392Z,100635.69
2022-09-02T22:33:19.001Z,100628.00
2022-09-02T22:36:07.890Z,100622.69
2022-09-02T22:38:50.126Z,100620.03
2022-09-02T22:41:34.272Z,100618.69
2022-09-02T22:44:20.296Z,100617.28
2022-09-02T22:47:18.555Z,100614.34
2022-09-02T22:50:16.068Z,100609.81
2022-09-02T22:52:54.830Z,100612.53
2022-09-02T22:55:48.196Z,100611.66
2022-09-02T22:59:32.665Z,100614.09
2022-09-02T23:02:33.781Z,100608.75
2022-09-02T23:05:43.020Z,100598.56
2022-09-02T23:08:14.550Z,100600.19
2022-09-02T23:11:14.736Z,100598.66
2022-09-02T23:14:23.900Z,100597.66
2022-09-02T23:17:12.909Z,100598.13
2022-09-02T23:20:11.107Z,100598.03
2022-09-02T23:22:57.871Z,100599.47
2022-09-02T23:25:51.923Z,100596.31
2022-09-02T23:28:58.217Z,100604.13
2022-09-02T23:31:54.050Z,100595.97
2022-09-02T23:34:57.951Z,100599.41
2022-09-02T23:38:12.920Z,100609.50
2022-09-02T23:41:08.838Z,100598.59
2022-09-02T23:43:37.594Z,100587.03
2022-09-02T23:46:36.385Z,100589.56
2022-09-02T23:49:49.230Z,100589.00
2022-09-02T23:52:52.975Z,100579.38
2022-09-02T23:56:07.397Z,100577.72
2022-09-02T23:59:24.934Z,100580.69
